sensor_id;sensor_type;location;lat;lon;timestamp;P1;durP1;ratioP1;P2;durP2;ratioP2
15454;SDS011;21057;51.024;7.540;2023-07-31T00:01:45;18.42;;;17.13;;
15454;SDS011;21057;51.024;7.540;2023-07-31T00:04:12;18.35;;;17.20;;
15454;SDS011;21057;51.024;7.540;2023-07-31T00:06:38;19.13;;;17.85;;
15454;SDS011;21057;51.024;7.540;2023-07-31T00:09:05;18.43;;;16.93;;
15454;SDS011;21057;51.024;7.540;2023-07-31T00:11:33;18.83;;;17.53;;
15454;SDS011;21057;51.024;7.540;2023-07-31T00:14:00;19.38;;;18.08;;
15454;SDS011;21057;51.024;7.540;2023-07-31T00:16:27;18.42;;;17.23;;
15454;SDS011;21057;51.024;7.540;2023-07-31T00:18:54;18.63;;;17.20;;
15454;SDS011;21057;51.024;7.540;2023-07-31T00:21:21;18.00;;;16.83;;
15454;SDS011;21057;51.024;7.540;2023-07-31T00:23:47;18.17;;;16.97;;
15454;SDS011;21057;51.024;7.540;2023-07-31T00:26:14;18.80;;;17.60;;
15454;SDS011;21057;51.024;7.540;2023-07-31T00:28:43;18.17;;;16.80;;
15454;SDS011;21057;51.024;7.540;2023-07-31T00:31:09;17.23;;;15.87;;
15454;SDS011;21057;51.024;7.540;2023-07-31T00:33:37;17.90;;;16.47;;
15454;SDS011;21057;51.024;7.540;2023-07-31T00:36:04;17.40;;;16.20;;
15454;SDS011;21057;51.024;7.540;2023-07-31T00:38:31;17.08;;;15.98;;
15454;SDS011;21057;51.024;7.540;2023-07-31T00:40:58;18.20;;;16.73;;
15454;SDS011;21057;51.024;7.540;2023-07-31T00:43:24;18.55;;;17.30;;
15454;SDS011;21057;51.024;7.540;2023-07-31T00:45:53;19.05;;;17.77;;
15454;SDS011;21057;51.024;7.540;2023-07-31T00:48:20;20.08;;;18.40;;
15454;SDS011;21057;51.024;7.540;2023-07-31T00:50:47;19.77;;;17.80;;
15454;SDS011;21057;51.024;7.540;2023-07-31T00:53:14;18.75;;;17.55;;
15454;SDS011;21057;51.024;7.540;2023-07-31T00:55:41;20.00;;;18.05;;
15454;SDS011;21057;51.024;7.540;2023-07-31T00:58:09;18.83;;;17.20;;
15454;SDS011;21057;51.024;7.540;2023-07-31T01:00:36;18.80;;;17.48;;
15454;SDS011;21057;51.024;7.540;2023-07-31T01:03:04;19.55;;;17.92;;
15454;SDS011;21057;51.024;7.540;2023-07-31T01:05:33;18.83;;;17.20;;
15454;SDS011;21057;51.024;7.540;2023-07-31T01:08:08;18.93;;;17.60;;
15454;SDS011;21057;51.024;7.540;2023-07-31T01:10:44;20.17;;;18.33;;
15454;SDS011;21057;51.024;7.540;2023-07-31T01:13:16;21.65;;;17.50;;
15454;SDS011;21057;51.024;7.540;2023-07-31T01:15:44;18.40;;;17.30;;
15454;SDS011;21057;51.024;7.540;2023-07-31T01:18:12;18.33;;;17.02;;
15454;SDS011;21057;51.024;7.540;2023-07-31T01:20:39;18.33;;;17.13;;
15454;SDS011;21057;51.024;7.540;2023-07-31T01:23:13;18.20;;;16.90;;
15454;SDS011;21057;51.024;7.540;2023-07-31T01:26:07;17.60;;;16.45;;
15454;SDS011;21057;51.024;7.540;2023-07-31T01:28:40;17.73;;;16.42;;
15454;SDS011;21057;51.024;7.540;2023-07-31T01:31:18;18.23;;;16.92;;
15454;SDS011;21057;51.024;7.540;2023-07-31T01:33:48;18.50;;;17.20;;
15454;SDS011;21057;51.024;7.540;2023-07-31T01:36:16;18.23;;;16.83;;
15454;SDS011;21057;51.024;7.540;2023-07-31T01:38:43;18.73;;;17.33;;
15454;SDS011;21057;51.024;7.540;2023-07-31T01:41:11;18.92;;;17.05;;
15454;SDS011;21057;51.024;7.540;2023-07-31T01:43:38;17.25;;;16.15;;
15454;SDS011;21057;51.024;7.540;2023-07-31T01:46:05;17.92;;;16.42;;
15454;SDS011;21057;51.024;7.540;2023-07-31T01:48:32;17.85;;;16.50;;
15454;SDS011;21057;51.024;7.540;2023-07-31T01:51:01;17.73;;;16.43;;
15454;SDS011;21057;51.024;7.540;2023-07-31T01:53:28;16.90;;;15.77;;
15454;SDS011;21057;51.024;7.540;2023-07-31T01:55:56;17.67;;;16.57;;
15454;SDS011;21057;51.024;7.540;2023-07-31T01:58:24;18.17;;;16.80;;
15454;SDS011;21057;51.024;7.540;2023-07-31T02:00:51;18.65;;;17.45;;
15454;SDS011;21057;51.024;7.540;2023-07-31T02:03:18;17.98;;;16.77;;
15454;SDS011;21057;51.024;7.540;2023-07-31T02:05:45;18.00;;;16.67;;
15454;SDS011;21057;51.024;7.540;2023-07-31T02:08:12;18.60;;;16.73;;
15454;SDS011;21057;51.024;7.540;2023-07-31T02:10:39;18.40;;;17.00;;
15454;SDS011;21057;51.024;7.540;2023-07-31T02:13:05;19.45;;;18.02;;
15454;SDS011;21057;51.024;7.540;2023-07-31T02:15:34;19.55;;;18.00;;
15454;SDS011;21057;51.024;7.540;2023-07-31T02:18:01;19.27;;;18.08;;
15454;SDS011;21057;51.024;7.540;2023-07-31T02:20:28;19.43;;;18.03;;
15454;SDS011;21057;51.024;7.540;2023-07-31T02:22:54;18.67;;;17.27;;
15454;SDS011;21057;51.024;7.540;2023-07-31T02:25:21;18.70;;;17.25;;
15454;SDS011;21057;51.024;7.540;2023-07-31T02:27:48;18.03;;;16.97;;
15454;SDS011;21057;51.024;7.540;2023-07-31T02:30:15;17.70;;;16.57;;
15454;SDS011;21057;51.024;7.540;2023-07-31T02:32:43;18.27;;;17.17;;
15454;SDS011;21057;51.024;7.540;2023-07-31T02:35:10;18.17;;;17.02;;
15454;SDS011;21057;51.024;7.540;2023-07-31T02:37:40;18.17;;;17.08;;
15454;SDS011;21057;51.024;7.540;2023-07-31T02:40:07;17.73;;;16.67;;
15454;SDS011;21057;51.024;7.540;2023-07-31T02:42:34;18.88;;;17.23;;
15454;SDS011;21057;51.024;7.540;2023-07-31T02:45:01;17.70;;;16.60;;
15454;SDS011;21057;51.024;7.540;2023-07-31T02:47:28;17.63;;;16.30;;
15454;SDS011;21057;51.024;7.540;2023-07-31T02:49:56;19.02;;;17.23;;
15454;SDS011;21057;51.024;7.540;2023-07-31T02:52:24;17.42;;;16.38;;
15454;SDS011;21057;51.024;7.540;2023-07-31T02:54:51;17.38;;;16.30;;
15454;SDS011;21057;51.024;7.540;2023-07-31T02:57:18;17.90;;;16.70;;
15454;SDS011;21057;51.024;7.540;2023-07-31T02:59:44;17.70;;;16.60;;
15454;SDS011;21057;51.024;7.540;2023-07-31T03:02:11;18.65;;;17.45;;
15454;SDS011;21057;51.024;7.540;2023-07-31T03:04:39;18.42;;;17.00;;
15454;SDS011;21057;51.024;7.540;2023-07-31T03:07:07;17.25;;;16.00;;
15454;SDS011;21057;51.024;7.540;2023-07-31T03:09:34;18.73;;;17.17;;
15454;SDS011;21057;51.024;7.540;2023-07-31T03:12:01;18.25;;;16.95;;
15454;SDS011;21057;51.024;7.540;2023-07-31T03:14:28;17.92;;;16.33;;
15454;SDS011;21057;51.024;7.540;2023-07-31T03:16:55;17.25;;;16.17;;
15454;SDS011;21057;51.024;7.540;2023-07-31T03:19:22;17.90;;;16.52;;
15454;SDS011;21057;51.024;7.540;2023-07-31T03:21:49;18.25;;;16.95;;
15454;SDS011;21057;51.024;7.540;2023-07-31T03:24:17;18.23;;;16.98;;
15454;SDS011;21057;51.024;7.540;2023-07-31T03:26:44;18.38;;;16.92;;
15454;SDS011;21057;51.024;7.540;2023-07-31T03:29:11;19.58;;;17.85;;
15454;SDS011;21057;51.024;7.540;2023-07-31T03:31:38;19.13;;;17.52;;
15454;SDS011;21057;51.024;7.540;2023-07-31T03:34:05;19.50;;;18.02;;
15454;SDS011;21057;51.024;7.540;2023-07-31T03:36:31;19.30;;;17.88;;
15454;SDS011;21057;51.024;7.540;2023-07-31T03:38:58;19.13;;;17.58;;
15454;SDS011;21057;51.024;7.540;2023-07-31T03:41:27;18.70;;;17.42;;
15454;SDS011;21057;51.024;7.540;2023-07-31T03:43:53;20.15;;;18.63;;
15454;SDS011;21057;51.024;7.540;2023-07-31T03:46:21;19.35;;;17.50;;
15454;SDS011;21057;51.024;7.540;2023-07-31T03:48:48;18.70;;;17.50;;
15454;SDS011;21057;51.024;7.540;2023-07-31T03:51:15;18.88;;;17.55;;
15454;SDS011;21057;51.024;7.540;2023-07-31T03:53:42;19.17;;;17.98;;
15454;SDS011;21057;51.024;7.540;2023-07-31T03:56:10;20.33;;;18.38;;
15454;SDS011;21057;51.024;7.540;2023-07-31T03:58:38;19.60;;;18.30;;
15454;SDS011;21057;51.024;7.540;2023-07-31T04:01:05;20.77;;;19.48;;
15454;SDS011;21057;51.024;7.540;2023-07-31T04:03:32;20.08;;;18.65;;
15454;SDS011;21057;51.024;7.540;2023-07-31T04:05:59;21.08;;;19.60;;
15454;SDS011;21057;51.024;7.540;2023-07-31T04:08:25;21.88;;;20.25;;
15454;SDS011;21057;51.024;7.540;2023-07-31T04:10:52;21.85;;;20.20;;
15454;SDS011;21057;51.024;7.540;2023-07-31T04:13:19;21.95;;;20.23;;
15454;SDS011;21057;51.024;7.540;2023-07-31T04:15:49;21.13;;;19.63;;
15454;SDS011;21057;51.024;7.540;2023-07-31T04:18:16;21.35;;;19.85;;
15454;SDS011;21057;51.024;7.540;2023-07-31T04:20:43;21.13;;;19.73;;
15454;SDS011;21057;51.024;7.540;2023-07-31T04:23:10;20.20;;;19.00;;
15454;SDS011;21057;51.024;7.540;2023-07-31T04:25:37;21.50;;;20.10;;
15454;SDS011;21057;51.024;7.540;2023-07-31T04:28:04;20.40;;;19.10;;
15454;SDS011;21057;51.024;7.540;2023-07-31T04:30:32;20.95;;;19.52;;
15454;SDS011;21057;51.024;7.540;2023-07-31T04:33:00;21.30;;;19.55;;
15454;SDS011;21057;51.024;7.540;2023-07-31T04:35:27;20.00;;;18.45;;
15454;SDS011;21057;51.024;7.540;2023-07-31T04:37:54;20.45;;;18.98;;
15454;SDS011;21057;51.024;7.540;2023-07-31T04:40:21;20.13;;;18.63;;
15454;SDS011;21057;51.024;7.540;2023-07-31T04:42:48;19.77;;;18.38;;
15454;SDS011;21057;51.024;7.540;2023-07-31T04:45:14;21.27;;;19.37;;
15454;SDS011;21057;51.024;7.540;2023-07-31T04:47:41;21.00;;;19.17;;
15454;SDS011;21057;51.024;7.540;2023-07-31T04:50:10;20.15;;;18.60;;
15454;SDS011;21057;51.024;7.540;2023-07-31T04:52:37;19.30;;;18.10;;
15454;SDS011;21057;51.024;7.540;2023-07-31T04:55:04;20.30;;;18.67;;
15454;SDS011;21057;51.024;7.540;2023-07-31T04:57:31;20.55;;;18.92;;
15454;SDS011;21057;51.024;7.540;2023-07-31T04:59:58;20.15;;;18.75;;
15454;SDS011;21057;51.024;7.540;2023-07-31T05:02:24;20.70;;;19.42;;
15454;SDS011;21057;51.024;7.540;2023-07-31T05:04:51;21.40;;;19.83;;
15454;SDS011;21057;51.024;7.540;2023-07-31T05:07:19;20.48;;;18.88;;
15454;SDS011;21057;51.024;7.540;2023-07-31T05:09:46;20.52;;;19.05;;
15454;SDS011;21057;51.024;7.540;2023-07-31T05:12:13;20.40;;;18.95;;
15454;SDS011;21057;51.024;7.540;2023-07-31T05:14:40;19.85;;;18.55;;
15454;SDS011;21057;51.024;7.540;2023-07-31T05:17:07;20.42;;;19.02;;
15454;SDS011;21057;51.024;7.540;2023-07-31T05:19:33;20.17;;;18.80;;
15454;SDS011;21057;51.024;7.540;2023-07-31T05:22:00;20.33;;;18.53;;
15454;SDS011;21057;51.024;7.540;2023-07-31T05:24:28;20.90;;;18.97;;
15454;SDS011;21057;51.024;7.540;2023-07-31T05:26:55;20.35;;;18.40;;
15454;SDS011;21057;51.024;7.540;2023-07-31T05:29:22;21.23;;;19.38;;
15454;SDS011;21057;51.024;7.540;2023-07-31T05:31:49;20.08;;;18.77;;
15454;SDS011;21057;51.024;7.540;2023-07-31T05:34:16;20.75;;;19.25;;
15454;SDS011;21057;51.024;7.540;2023-07-31T05:36:43;19.73;;;18.20;;
15454;SDS011;21057;51.024;7.540;2023-07-31T05:39:09;21.02;;;19.63;;
15454;SDS011;21057;51.024;7.540;2023-07-31T05:41:37;20.58;;;18.98;;
15454;SDS011;21057;51.024;7.540;2023-07-31T05:44:04;19.65;;;18.33;;
15454;SDS011;21057;51.024;7.540;2023-07-31T05:46:31;19.40;;;18.13;;
15454;SDS011;21057;51.024;7.540;2023-07-31T05:48:58;20.17;;;18.58;;
15454;SDS011;21057;51.024;7.540;2023-07-31T05:51:26;19.38;;;18.08;;
15454;SDS011;21057;51.024;7.540;2023-07-31T05:53:53;21.45;;;19.92;;
15454;SDS011;21057;51.024;7.540;2023-07-31T05:56:20;19.15;;;17.92;;
15454;SDS011;21057;51.024;7.540;2023-07-31T05:58:48;19.33;;;17.98;;
15454;SDS011;21057;51.024;7.540;2023-07-31T06:01:15;19.30;;;17.90;;
15454;SDS011;21057;51.024;7.540;2023-07-31T06:03:43;19.48;;;18.23;;
15454;SDS011;21057;51.024;7.540;2023-07-31T06:06:10;19.55;;;18.25;;
15454;SDS011;21057;51.024;7.540;2023-07-31T06:08:37;19.35;;;18.02;;
15454;SDS011;21057;51.024;7.540;2023-07-31T06:11:04;19.95;;;17.92;;
15454;SDS011;21057;51.024;7.540;2023-07-31T06:13:32;18.65;;;17.45;;
15454;SDS011;21057;51.024;7.540;2023-07-31T06:16:00;20.20;;;18.50;;
15454;SDS011;21057;51.024;7.540;2023-07-31T06:18:30;18.85;;;17.38;;
15454;SDS011;21057;51.024;7.540;2023-07-31T06:20:57;19.88;;;17.65;;
15454;SDS011;21057;51.024;7.540;2023-07-31T06:23:24;19.10;;;17.65;;
15454;SDS011;21057;51.024;7.540;2023-07-31T06:25:50;19.58;;;18.27;;
15454;SDS011;21057;51.024;7.540;2023-07-31T06:28:17;19.27;;;18.02;;
15454;SDS011;21057;51.024;7.540;2023-07-31T06:30:44;20.40;;;18.52;;
15454;SDS011;21057;51.024;7.540;2023-07-31T06:33:12;20.88;;;19.13;;
15454;SDS011;21057;51.024;7.540;2023-07-31T06:35:39;19.50;;;18.20;;
15454;SDS011;21057;51.024;7.540;2023-07-31T06:38:06;19.00;;;17.85;;
15454;SDS011;21057;51.024;7.540;2023-07-31T06:40:33;18.88;;;17.33;;
15454;SDS011;21057;51.024;7.540;2023-07-31T06:42:59;20.15;;;18.65;;
15454;SDS011;21057;51.024;7.540;2023-07-31T06:45:32;20.85;;;19.15;;
15454;SDS011;21057;51.024;7.540;2023-07-31T06:48:00;19.38;;;18.08;;
15454;SDS011;21057;51.024;7.540;2023-07-31T06:50:28;19.98;;;18.48;;
15454;SDS011;21057;51.024;7.540;2023-07-31T06:52:55;19.67;;;18.48;;
15454;SDS011;21057;51.024;7.540;2023-07-31T06:55:22;20.38;;;18.92;;
15454;SDS011;21057;51.024;7.540;2023-07-31T06:57:50;19.52;;;18.23;;
15454;SDS011;21057;51.024;7.540;2023-07-31T07:00:18;19.02;;;17.75;;
15454;SDS011;21057;51.024;7.540;2023-07-31T07:02:46;19.23;;;17.92;;
15454;SDS011;21057;51.024;7.540;2023-07-31T07:05:13;19.30;;;17.95;;
15454;SDS011;21057;51.024;7.540;2023-07-31T07:07:42;18.70;;;17.33;;
15454;SDS011;21057;51.024;7.540;2023-07-31T07:10:09;18.92;;;17.63;;
15454;SDS011;21057;51.024;7.540;2023-07-31T07:12:36;18.42;;;17.13;;
15454;SDS011;21057;51.024;7.540;2023-07-31T07:15:03;18.92;;;17.30;;
15454;SDS011;21057;51.024;7.540;2023-07-31T07:17:30;18.35;;;17.17;;
15454;SDS011;21057;51.024;7.540;2023-07-31T07:19:57;17.80;;;16.60;;
15454;SDS011;21057;51.024;7.540;2023-07-31T07:22:24;18.85;;;17.55;;
15454;SDS011;21057;51.024;7.540;2023-07-31T07:24:53;18.95;;;17.30;;
15454;SDS011;21057;51.024;7.540;2023-07-31T07:27:20;17.58;;;16.38;;
15454;SDS011;21057;51.024;7.540;2023-07-31T07:29:47;17.88;;;16.67;;
15454;SDS011;21057;51.024;7.540;2023-07-31T07:32:16;17.70;;;16.52;;
15454;SDS011;21057;51.024;7.540;2023-07-31T07:34:43;16.75;;;15.65;;
15454;SDS011;21057;51.024;7.540;2023-07-31T07:37:11;17.73;;;16.52;;
15454;SDS011;21057;51.024;7.540;2023-07-31T07:39:37;19.27;;;17.88;;
15454;SDS011;21057;51.024;7.540;2023-07-31T07:42:06;19.10;;;17.80;;
15454;SDS011;21057;51.024;7.540;2023-07-31T07:44:33;19.48;;;18.17;;
15454;SDS011;21057;51.024;7.540;2023-07-31T07:46:59;18.88;;;17.40;;
15454;SDS011;21057;51.024;7.540;2023-07-31T07:49:26;19.58;;;18.30;;
15454;SDS011;21057;51.024;7.540;2023-07-31T07:51:53;19.50;;;18.15;;
15454;SDS011;21057;51.024;7.540;2023-07-31T07:54:20;19.23;;;18.02;;
15454;SDS011;21057;51.024;7.540;2023-07-31T07:56:47;18.65;;;17.38;;
15454;SDS011;21057;51.024;7.540;2023-07-31T07:59:16;19.30;;;18.00;;
15454;SDS011;21057;51.024;7.540;2023-07-31T08:01:42;18.55;;;17.33;;
15454;SDS011;21057;51.024;7.540;2023-07-31T08:04:09;19.02;;;17.70;;
15454;SDS011;21057;51.024;7.540;2023-07-31T08:06:36;18.95;;;17.55;;
15454;SDS011;21057;51.024;7.540;2023-07-31T08:09:03;19.65;;;18.35;;
15454;SDS011;21057;51.024;7.540;2023-07-31T08:11:31;20.23;;;18.80;;
15454;SDS011;21057;51.024;7.540;2023-07-31T08:13:58;19.58;;;18.27;;
15454;SDS011;21057;51.024;7.540;2023-07-31T08:16:26;18.67;;;17.38;;
15454;SDS011;21057;51.024;7.540;2023-07-31T08:18:53;19.42;;;18.05;;
15454;SDS011;21057;51.024;7.540;2023-07-31T08:21:20;19.75;;;18.50;;
15454;SDS011;21057;51.024;7.540;2023-07-31T08:23:47;19.05;;;17.75;;
15454;SDS011;21057;51.024;7.540;2023-07-31T08:26:14;19.70;;;18.10;;
15454;SDS011;21057;51.024;7.540;2023-07-31T08:28:41;18.67;;;17.40;;
15454;SDS011;21057;51.024;7.540;2023-07-31T08:31:08;19.67;;;18.40;;
15454;SDS011;21057;51.024;7.540;2023-07-31T08:33:37;19.67;;;17.92;;
15454;SDS011;21057;51.024;7.540;2023-07-31T08:36:04;19.27;;;17.90;;
15454;SDS011;21057;51.024;7.540;2023-07-31T08:38:31;19.80;;;18.05;;
15454;SDS011;21057;51.024;7.540;2023-07-31T08:40:58;17.92;;;16.75;;
15454;SDS011;21057;51.024;7.540;2023-07-31T08:43:25;19.42;;;17.80;;
15454;SDS011;21057;51.024;7.540;2023-07-31T08:45:52;18.42;;;17.13;;
15454;SDS011;21057;51.024;7.540;2023-07-31T08:48:20;18.63;;;17.13;;
15454;SDS011;21057;51.024;7.540;2023-07-31T08:50:49;19.15;;;17.77;;
15454;SDS011;21057;51.024;7.540;2023-07-31T08:53:17;19.48;;;17.75;;
15454;SDS011;21057;51.024;7.540;2023-07-31T08:55:44;18.48;;;17.00;;
15454;SDS011;21057;51.024;7.540;2023-07-31T08:58:12;18.35;;;17.05;;
15454;SDS011;21057;51.024;7.540;2023-07-31T09:00:39;18.27;;;16.98;;
15454;SDS011;21057;51.024;7.540;2023-07-31T09:03:09;18.55;;;17.35;;
15454;SDS011;21057;51.024;7.540;2023-07-31T09:05:41;18.70;;;17.45;;
15454;SDS011;21057;51.024;7.540;2023-07-31T09:08:10;19.02;;;17.83;;
15454;SDS011;21057;51.024;7.540;2023-07-31T09:10:40;18.27;;;17.13;;
15454;SDS011;21057;51.024;7.540;2023-07-31T09:13:07;17.90;;;16.58;;
15454;SDS011;21057;51.024;7.540;2023-07-31T09:15:35;18.55;;;17.08;;
15454;SDS011;21057;51.024;7.540;2023-07-31T09:18:02;18.23;;;17.13;;
15454;SDS011;21057;51.024;7.540;2023-07-31T09:20:30;18.92;;;17.73;;
15454;SDS011;21057;51.024;7.540;2023-07-31T09:23:01;19.42;;;18.13;;
15454;SDS011;21057;51.024;7.540;2023-07-31T09:25:34;18.88;;;17.60;;
15454;SDS011;21057;51.024;7.540;2023-07-31T09:28:02;18.25;;;17.08;;
15454;SDS011;21057;51.024;7.540;2023-07-31T09:30:30;18.42;;;17.27;;
15454;SDS011;21057;51.024;7.540;2023-07-31T09:33:01;18.98;;;17.67;;
15454;SDS011;21057;51.024;7.540;2023-07-31T09:35:32;19.50;;;17.98;;
15454;SDS011;21057;51.024;7.540;2023-07-31T09:38:00;18.00;;;16.80;;
15454;SDS011;21057;51.024;7.540;2023-07-31T09:40:30;17.65;;;16.45;;
15454;SDS011;21057;51.024;7.540;2023-07-31T09:42:59;19.40;;;17.75;;
15454;SDS011;21057;51.024;7.540;2023-07-31T09:45:27;18.50;;;17.40;;
15454;SDS011;21057;51.024;7.540;2023-07-31T09:47:54;18.10;;;16.63;;
15454;SDS011;21057;51.024;7.540;2023-07-31T09:50:22;18.60;;;17.05;;
15454;SDS011;21057;51.024;7.540;2023-07-31T09:52:50;17.33;;;16.23;;
15454;SDS011;21057;51.024;7.540;2023-07-31T09:55:18;18.73;;;16.98;;
15454;SDS011;21057;51.024;7.540;2023-07-31T09:57:46;18.67;;;17.30;;
15454;SDS011;21057;51.024;7.540;2023-07-31T10:00:17;18.75;;;17.45;;
15454;SDS011;21057;51.024;7.540;2023-07-31T10:02:45;18.30;;;17.10;;
15454;SDS011;21057;51.024;7.540;2023-07-31T10:05:13;18.15;;;16.75;;
15454;SDS011;21057;51.024;7.540;2023-07-31T10:07:42;18.40;;;17.25;;
15454;SDS011;21057;51.024;7.540;2023-07-31T10:10:15;17.50;;;16.30;;
15454;SDS011;21057;51.024;7.540;2023-07-31T10:12:42;17.20;;;16.20;;
15454;SDS011;21057;51.024;7.540;2023-07-31T10:15:11;17.48;;;16.38;;
15454;SDS011;21057;51.024;7.540;2023-07-31T10:17:40;17.20;;;16.20;;
15454;SDS011;21057;51.024;7.540;2023-07-31T10:20:07;16.75;;;15.70;;
15454;SDS011;21057;51.024;7.540;2023-07-31T10:22:36;17.42;;;16.23;;
15454;SDS011;21057;51.024;7.540;2023-07-31T10:25:03;17.50;;;16.35;;
15454;SDS011;21057;51.024;7.540;2023-07-31T10:27:32;17.77;;;16.67;;
15454;SDS011;21057;51.024;7.540;2023-07-31T10:30:01;18.13;;;16.40;;
15454;SDS011;21057;51.024;7.540;2023-07-31T10:32:31;18.42;;;16.73;;
15454;SDS011;21057;51.024;7.540;2023-07-31T10:35:00;17.33;;;16.13;;
15454;SDS011;21057;51.024;7.540;2023-07-31T10:37:30;17.50;;;16.25;;
15454;SDS011;21057;51.024;7.540;2023-07-31T10:40:03;17.83;;;16.50;;
15454;SDS011;21057;51.024;7.540;2023-07-31T10:42:33;18.08;;;16.77;;
15454;SDS011;21057;51.024;7.540;2023-07-31T10:45:01;17.98;;;16.70;;
15454;SDS011;21057;51.024;7.540;2023-07-31T10:47:30;18.65;;;17.30;;
15454;SDS011;21057;51.024;7.540;2023-07-31T10:50:16;18.17;;;16.85;;
15454;SDS011;21057;51.024;7.540;2023-07-31T10:52:46;18.27;;;17.00;;
15454;SDS011;21057;51.024;7.540;2023-07-31T10:58:05;17.58;;;16.42;;
15454;SDS011;21057;51.024;7.540;2023-07-31T11:00:33;18.05;;;16.85;;
15454;SDS011;21057;51.024;7.540;2023-07-31T11:03:04;19.40;;;17.60;;
15454;SDS011;21057;51.024;7.540;2023-07-31T11:08:29;20.27;;;18.92;;
15454;SDS011;21057;51.024;7.540;2023-07-31T11:11:07;18.73;;;17.52;;
15454;SDS011;21057;51.024;7.540;2023-07-31T11:13:39;19.45;;;18.17;;
15454;SDS011;21057;51.024;7.540;2023-07-31T11:16:07;19.30;;;18.10;;
15454;SDS011;21057;51.024;7.540;2023-07-31T11:18:34;19.90;;;18.35;;
15454;SDS011;21057;51.024;7.540;2023-07-31T11:21:03;19.42;;;18.20;;
15454;SDS011;21057;51.024;7.540;2023-07-31T11:23:29;20.90;;;18.83;;
15454;SDS011;21057;51.024;7.540;2023-07-31T11:25:58;19.58;;;18.00;;
15454;SDS011;21057;51.024;7.540;2023-07-31T11:28:26;18.25;;;17.00;;
15454;SDS011;21057;51.024;7.540;2023-07-31T11:30:58;17.90;;;16.52;;
15454;SDS011;21057;51.024;7.540;2023-07-31T11:33:26;18.02;;;16.65;;
15454;SDS011;21057;51.024;7.540;2023-07-31T11:35:53;17.95;;;16.65;;
15454;SDS011;21057;51.024;7.540;2023-07-31T11:38:24;19.10;;;17.77;;
15454;SDS011;21057;51.024;7.540;2023-07-31T11:40:52;18.02;;;16.80;;
15454;SDS011;21057;51.024;7.540;2023-07-31T11:43:20;18.35;;;17.15;;
15454;SDS011;21057;51.024;7.540;2023-07-31T11:45:48;18.55;;;17.25;;
15454;SDS011;21057;51.024;7.540;2023-07-31T11:48:19;18.90;;;17.67;;
15454;SDS011;21057;51.024;7.540;2023-07-31T11:50:47;18.58;;;16.77;;
15454;SDS011;21057;51.024;7.540;2023-07-31T11:53:16;19.13;;;17.63;;
15454;SDS011;21057;51.024;7.540;2023-07-31T11:55:46;18.48;;;17.23;;
15454;SDS011;21057;51.024;7.540;2023-07-31T11:58:14;18.77;;;17.38;;
15454;SDS011;21057;51.024;7.540;2023-07-31T12:00:42;18.73;;;17.63;;
15454;SDS011;21057;51.024;7.540;2023-07-31T12:03:09;18.02;;;16.92;;
15454;SDS011;21057;51.024;7.540;2023-07-31T12:05:39;18.10;;;16.70;;
15454;SDS011;21057;51.024;7.540;2023-07-31T12:08:11;19.10;;;17.88;;
15454;SDS011;21057;51.024;7.540;2023-07-31T12:10:38;20.27;;;18.27;;
15454;SDS011;21057;51.024;7.540;2023-07-31T12:13:08;19.25;;;18.05;;
15454;SDS011;21057;51.024;7.540;2023-07-31T12:15:38;18.77;;;17.58;;
15454;SDS011;21057;51.024;7.540;2023-07-31T12:18:07;18.58;;;17.42;;
15454;SDS011;21057;51.024;7.540;2023-07-31T12:20:35;19.15;;;17.75;;
15454;SDS011;21057;51.024;7.540;2023-07-31T12:23:06;19.40;;;18.10;;
15454;SDS011;21057;51.024;7.540;2023-07-31T12:25:33;18.10;;;17.00;;
15454;SDS011;21057;51.024;7.540;2023-07-31T12:28:04;19.02;;;17.48;;
15454;SDS011;21057;51.024;7.540;2023-07-31T12:30:38;17.98;;;16.88;;
15454;SDS011;21057;51.024;7.540;2023-07-31T12:33:06;18.75;;;17.58;;
15454;SDS011;21057;51.024;7.540;2023-07-31T12:35:40;18.60;;;17.40;;
15454;SDS011;21057;51.024;7.540;2023-07-31T12:38:09;18.10;;;17.00;;
15454;SDS011;21057;51.024;7.540;2023-07-31T12:40:41;18.17;;;16.92;;
15454;SDS011;21057;51.024;7.540;2023-07-31T12:43:08;18.05;;;16.88;;
15454;SDS011;21057;51.024;7.540;2023-07-31T12:45:35;18.33;;;17.02;;
15454;SDS011;21057;51.024;7.540;2023-07-31T12:48:04;18.17;;;17.13;;
15454;SDS011;21057;51.024;7.540;2023-07-31T12:50:30;18.50;;;17.40;;
15454;SDS011;21057;51.024;7.540;2023-07-31T12:52:57;19.15;;;17.75;;
15454;SDS011;21057;51.024;7.540;2023-07-31T12:55:24;18.90;;;17.77;;
15454;SDS011;21057;51.024;7.540;2023-07-31T12:57:51;18.40;;;17.30;;
15454;SDS011;21057;51.024;7.540;2023-07-31T13:00:18;19.85;;;18.65;;
15454;SDS011;21057;51.024;7.540;2023-07-31T13:02:46;19.95;;;18.45;;
15454;SDS011;21057;51.024;7.540;2023-07-31T13:05:13;19.92;;;18.67;;
15454;SDS011;21057;51.024;7.540;2023-07-31T13:07:40;19.40;;;18.25;;
15454;SDS011;21057;51.024;7.540;2023-07-31T13:10:07;19.67;;;18.40;;
15454;SDS011;21057;51.024;7.540;2023-07-31T13:12:34;19.00;;;17.85;;
15454;SDS011;21057;51.024;7.540;2023-07-31T13:15:01;18.52;;;17.42;;
15454;SDS011;21057;51.024;7.540;2023-07-31T13:17:28;18.63;;;17.52;;
15454;SDS011;21057;51.024;7.540;2023-07-31T13:19:56;19.10;;;17.92;;
15454;SDS011;21057;51.024;7.540;2023-07-31T13:22:23;19.08;;;17.88;;
15454;SDS011;21057;51.024;7.540;2023-07-31T13:24:50;19.05;;;17.85;;
15454;SDS011;21057;51.024;7.540;2023-07-31T13:27:17;20.00;;;18.80;;
15454;SDS011;21057;51.024;7.540;2023-07-31T13:29:46;20.67;;;19.30;;
15454;SDS011;21057;51.024;7.540;2023-07-31T13:32:13;19.25;;;18.10;;
15454;SDS011;21057;51.024;7.540;2023-07-31T13:34:40;19.08;;;17.90;;
15454;SDS011;21057;51.024;7.540;2023-07-31T13:37:08;20.17;;;18.88;;
15454;SDS011;21057;51.024;7.540;2023-07-31T13:39:35;19.60;;;18.25;;
15454;SDS011;21057;51.024;7.540;2023-07-31T13:42:02;18.88;;;17.67;;
15454;SDS011;21057;51.024;7.540;2023-07-31T13:44:31;18.20;;;17.08;;
15454;SDS011;21057;51.024;7.540;2023-07-31T13:46:58;18.08;;;16.80;;
15454;SDS011;21057;51.024;7.540;2023-07-31T13:49:25;17.40;;;16.27;;
15454;SDS011;21057;51.024;7.540;2023-07-31T13:51:52;17.73;;;16.30;;
15454;SDS011;21057;51.024;7.540;2023-07-31T13:54:20;18.65;;;17.55;;
15454;SDS011;21057;51.024;7.540;2023-07-31T13:56:48;17.88;;;16.77;;
15454;SDS011;21057;51.024;7.540;2023-07-31T13:59:15;18.65;;;17.45;;
15454;SDS011;21057;51.024;7.540;2023-07-31T14:01:42;18.45;;;17.33;;
15454;SDS011;21057;51.024;7.540;2023-07-31T14:04:09;18.58;;;17.30;;
15454;SDS011;21057;51.024;7.540;2023-07-31T14:06:36;18.42;;;17.33;;
15454;SDS011;21057;51.024;7.540;2023-07-31T14:09:03;18.38;;;17.27;;
15454;SDS011;21057;51.024;7.540;2023-07-31T14:11:31;18.92;;;17.83;;
15454;SDS011;21057;51.024;7.540;2023-07-31T14:13:59;17.67;;;16.58;;
15454;SDS011;21057;51.024;7.540;2023-07-31T14:16:26;18.25;;;17.15;;
15454;SDS011;21057;51.024;7.540;2023-07-31T14:18:53;18.45;;;17.27;;
15454;SDS011;21057;51.024;7.540;2023-07-31T14:21:20;18.10;;;16.90;;
15454;SDS011;21057;51.024;7.540;2023-07-31T14:23:47;17.73;;;16.35;;
15454;SDS011;21057;51.024;7.540;2023-07-31T14:26:13;18.27;;;17.08;;
15454;SDS011;21057;51.024;7.540;2023-07-31T14:28:43;17.85;;;16.75;;
15454;SDS011;21057;51.024;7.540;2023-07-31T14:31:09;18.08;;;16.88;;